createdAt,value
2022-08-07T00:00:56.281Z,1006.19
2022-08-07T00:02:36.063Z,1006.18
2022-08-07T00:02:56.272Z,1006.12
2022-08-07T00:03:55.299Z,1006.14
2022-08-07T00:04:55.322Z,1006.18
2022-08-07T00:05:55.232Z,1006.16
2022-08-07T00:06:55.243Z,1006.19
2022-08-07T00:07:59.622Z,1006.22
2022-08-07T00:08:56.206Z,1006.20
2022-08-07T00:10:19.322Z,1006.19
2022-08-07T00:10:57.507Z,1006.17
2022-08-07T00:11:55.807Z,1006.12
2022-08-07T00:12:59.986Z,1006.05
2022-08-07T00:13:56.145Z,1006.15
2022-08-07T00:14:55.135Z,1006.14
2022-08-07T00:15:55.126Z,1006.11
2022-08-07T00:16:55.136Z,1006.12
2022-08-07T00:17:55.106Z,1006.16
2022-08-07T00:18:55.100Z,1006.13
2022-08-07T00:19:59.917Z,1006.12
2022-08-07T00:20:56.735Z,1006.12
2022-08-07T00:21:55.600Z,1006.12
2022-08-07T00:22:55.048Z,1006.11
2022-08-07T00:23:55.038Z,1006.14
2022-08-07T00:24:55.030Z,1006.13
2022-08-07T00:26:01.533Z,1006.08
2022-08-07T00:27:06.264Z,1006.17
2022-08-07T00:27:56.596Z,1006.05
2022-08-07T00:28:56.645Z,1006.14
2022-08-07T00:29:54.985Z,1006.16
2022-08-07T00:30:54.972Z,1006.06
2022-08-07T00:31:54.991Z,1006.06
2022-08-07T00:32:54.950Z,1006.08
2022-08-07T00:33:54.941Z,1006.05
2022-08-07T00:34:54.923Z,1006.00
2022-08-07T00:35:54.913Z,1006.10
2022-08-07T00:36:54.923Z,1006.06
2022-08-07T00:37:54.893Z,1005.97
2022-08-07T00:38:54.885Z,1005.99
2022-08-07T00:39:54.974Z,1006.00
2022-08-07T00:40:54.865Z,1005.97
2022-08-07T00:42:02.517Z,1005.93
2022-08-07T00:42:55.842Z,1005.92
2022-08-07T00:43:59.568Z,1005.95
2022-08-07T00:44:55.815Z,1005.94
2022-08-07T00:45:54.815Z,1005.97
2022-08-07T00:46:54.826Z,1005.93
2022-08-07T00:48:08.259Z,1005.91
2022-08-07T00:48:55.776Z,1005.91
2022-08-07T00:50:20.123Z,1005.91
2022-08-07T00:50:55.757Z,1005.91
2022-08-07T00:51:57.560Z,1005.89
2022-08-07T00:52:54.762Z,1005.96
2022-08-07T00:53:55.255Z,1005.87
2022-08-07T00:54:54.719Z,1005.86
2022-08-07T00:56:00.571Z,1005.91
2022-08-07T00:56:55.690Z,1005.91
2022-08-07T00:57:55.296Z,1005.85
2022-08-07T00:58:54.671Z,1005.82
2022-08-07T00:59:54.659Z,1005.84
2022-08-07T01:00:54.651Z,1005.83
2022-08-07T01:01:57.849Z,1005.85
2022-08-07T01:02:54.652Z,1005.81
2022-08-07T01:04:00.083Z,1005.81
2022-08-07T01:04:58.190Z,1005.75
2022-08-07T01:05:54.592Z,1005.80
2022-08-07T01:06:54.591Z,1005.83
2022-08-07T01:07:55.291Z,1005.81
2022-08-07T01:08:55.754Z,1005.82
2022-08-07T01:10:07.182Z,1005.80
2022-08-07T01:10:56.617Z,1005.75
2022-08-07T01:12:10.064Z,1005.76
2022-08-07T01:12:55.544Z,1005.79
2022-08-07T01:13:55.787Z,1005.76
2022-08-07T01:14:57.103Z,1005.77
2022-08-07T01:16:05.609Z,1005.77
2022-08-07T01:16:55.487Z,1005.79
2022-08-07T01:17:54.496Z,1005.78
2022-08-07T01:18:54.458Z,1005.76
2022-08-07T01:19:54.637Z,1005.75
2022-08-07T01:20:57.269Z,1005.79
2022-08-07T01:21:55.655Z,1005.72
2022-08-07T01:23:00.658Z,1005.79
2022-08-07T01:23:55.408Z,1005.81
2022-08-07T01:24:54.401Z,1005.77
2022-08-07T01:25:56.332Z,1005.80
2022-08-07T01:26:54.382Z,1005.78
2022-08-07T01:27:54.577Z,1005.73
2022-08-07T01:28:54.362Z,1005.70
2022-08-07T01:29:54.340Z,1005.79
2022-08-07T01:30:54.339Z,1005.75
2022-08-07T01:31:54.332Z,1005.75
2022-08-07T01:32:54.342Z,1005.74
2022-08-07T01:33:57.421Z,1005.72
2022-08-07T01:34:54.294Z,1005.69
2022-08-07T01:36:06.018Z,1005.69
2022-08-07T01:36:57.635Z,1005.70
2022-08-07T01:37:54.285Z,1005.75
2022-08-07T01:38:54.254Z,1005.79
2022-08-07T01:39:54.282Z,1005.73
2022-08-07T01:40:54.234Z,1005.80
2022-08-07T01:42:07.481Z,1005.83
2022-08-07T01:42:58.702Z,1005.81
2022-08-07T01:43:54.195Z,1005.82
2022-08-07T01:44:54.187Z,1005.80
2022-08-07T01:45:54.335Z,1005.77
2022-08-07T01:46:54.167Z,1005.82
2022-08-07T01:48:17.870Z,1005.79
2022-08-07T01:48:55.146Z,1005.82
2022-08-07T01:49:54.821Z,1005.77
2022-08-07T01:50:55.672Z,1005.77
2022-08-07T01:52:03.612Z,1005.78
2022-08-07T01:52:55.120Z,1005.81
2022-08-07T01:54:12.141Z,1005.79
2022-08-07T01:54:55.078Z,1005.79
2022-08-07T01:55:54.069Z,1005.79
2022-08-07T01:56:54.061Z,1005.82
2022-08-07T01:58:05.883Z,1005.78
2022-08-07T01:58:55.033Z,1005.75
2022-08-07T01:59:54.031Z,1005.78
2022-08-07T02:01:09.470Z,1005.77
2022-08-07T02:02:02.074Z,1005.81
2022-08-07T02:03:19.054Z,1005.79
2022-08-07T02:03:55.053Z,1005.83
2022-08-07T02:04:56.286Z,1005.77
2022-08-07T02:05:59.462Z,1005.76
2022-08-07T02:06:54.964Z,1005.75
2022-08-07T02:07:53.967Z,1005.76
2022-08-07T02:08:54.401Z,1005.77
2022-08-07T02:09:58.557Z,1005.75
2022-08-07T02:10:58.003Z,1005.73
2022-08-07T02:12:03.846Z,1005.72
2022-08-07T02:12:54.918Z,1005.77
2022-08-07T02:14:00.770Z,1005.79
2022-08-07T02:14:54.857Z,1005.78
2022-08-07T02:15:53.865Z,1005.75
2022-08-07T02:16:53.847Z,1005.75
2022-08-07T02:17:53.859Z,1005.75
2022-08-07T02:18:53.827Z,1005.74
2022-08-07T02:20:05.246Z,1005.72
2022-08-07T02:20:56.439Z,1005.70
2022-08-07T02:21:56.554Z,1005.73
2022-08-07T02:22:54.938Z,1005.73
2022-08-07T02:23:53.779Z,1005.70
2022-08-07T02:24:53.759Z,1005.71
2022-08-07T02:26:31.227Z,1005.69
2022-08-07T02:26:54.741Z,1005.68
2022-08-07T02:27:53.753Z,1005.63
2022-08-07T02:28:53.720Z,1005.64
2022-08-07T02:29:54.503Z,1005.67
2022-08-07T02:30:53.693Z,1005.64
2022-08-07T02:31:54.679Z,1005.63
2022-08-07T02:33:07.265Z,1005.67
2022-08-07T02:34:03.028Z,1005.62
2022-08-07T02:34:54.651Z,1005.62
2022-08-07T02:36:30.728Z,1005.68
2022-08-07T02:36:54.633Z,1005.68
2022-08-07T02:37:53.674Z,1005.64
2022-08-07T02:38:56.789Z,1005.68
2022-08-07T02:40:12.041Z,1005.64
2022-08-07T02:40:56.014Z,1005.67
2022-08-07T02:41:54.945Z,1005.61
2022-08-07T02:42:53.589Z,1005.61
2022-08-07T02:43:53.563Z,1005.61
2022-08-07T02:44:53.549Z,1005.65
2022-08-07T02:45:58.788Z,1005.68
2022-08-07T02:46:54.526Z,1005.63
2022-08-07T02:47:53.537Z,1005.66
2022-08-07T02:48:54.993Z,1005.65
2022-08-07T02:49:58.174Z,1005.65
2022-08-07T02:50:54.478Z,1005.62
2022-08-07T02:51:53.478Z,1005.63
2022-08-07T02:52:53.489Z,1005.66
2022-08-07T02:53:54.459Z,1005.67
2022-08-07T02:54:53.451Z,1005.61
2022-08-07T02:56:04.025Z,1005.63
2022-08-07T02:56:54.431Z,1005.63
2022-08-07T02:57:53.478Z,1005.61
2022-08-07T02:58:54.054Z,1005.62
2022-08-07T02:59:54.842Z,1005.65
2022-08-07T03:00:53.421Z,1005.63
2022-08-07T03:01:55.253Z,1005.60
2022-08-07T03:02:54.677Z,1005.63
2022-08-07T03:03:53.354Z,1005.64
2022-08-07T03:04:53.333Z,1005.60
2022-08-07T03:05:53.637Z,1005.59
2022-08-07T03:06:53.314Z,1005.63
2022-08-07T03:08:07.945Z,1005.64
2022-08-07T03:08:54.294Z,1005.66
2022-08-07T03:09:53.326Z,1005.67
2022-08-07T03:10:53.268Z,1005.61
2022-08-07T03:11:57.982Z,1005.67
2022-08-07T03:12:54.277Z,1005.70
2022-08-07T03:13:57.305Z,1005.68
2022-08-07T03:14:53.238Z,1005.62
2022-08-07T03:15:56.261Z,1005.66
2022-08-07T03:16:54.206Z,1005.63
2022-08-07T03:17:54.383Z,1005.70
2022-08-07T03:18:53.188Z,1005.62
2022-08-07T03:19:55.190Z,1005.63
2022-08-07T03:20:53.177Z,1005.60
2022-08-07T03:21:53.160Z,1005.64
2022-08-07T03:22:53.161Z,1005.68
2022-08-07T03:24:20.228Z,1005.66
2022-08-07T03:24:54.119Z,1005.65
2022-08-07T03:25:58.476Z,1005.58
2022-08-07T03:26:58.056Z,1005.59
2022-08-07T03:28:09.731Z,1005.63
2022-08-07T03:28:54.072Z,1005.63
2022-08-07T03:29:53.080Z,1005.60
2022-08-07T03:30:53.052Z,1005.62
2022-08-07T03:31:53.041Z,1005.60
2022-08-07T03:32:59.288Z,1005.61
2022-08-07T03:33:53.982Z,1005.58
2022-08-07T03:35:01.072Z,1005.55
2022-08-07T03:35:54.004Z,1005.58
2022-08-07T03:36:53.807Z,1005.57
2022-08-07T03:37:54.054Z,1005.53
2022-08-07T03:38:52.926Z,1005.56
2022-08-07T03:39:59.767Z,1005.45
2022-08-07T03:40:57.625Z,1005.49
2022-08-07T03:41:53.262Z,1005.46
2022-08-07T03:42:52.896Z,1005.49
2022-08-07T03:43:56.958Z,1005.52
2022-08-07T03:44:57.696Z,1005.51
2022-08-07T03:45:53.846Z,1005.49
2022-08-07T03:47:11.256Z,1005.55
2022-08-07T03:47:53.857Z,1005.51
2022-08-07T03:49:02.868Z,1005.54
2022-08-07T03:49:53.798Z,1005.59
2022-08-07T03:50:57.688Z,1005.56
2022-08-07T03:51:56.059Z,1005.55
2022-08-07T03:52:53.791Z,1005.57
2022-08-07T03:54:33.156Z,1005.59
2022-08-07T03:54:55.031Z,1005.63
2022-08-07T03:55:57.573Z,1005.62
2022-08-07T03:57:03.687Z,1005.67
2022-08-07T03:59:05.698Z,1005.71
2022-08-07T03:59:09.151Z,1005.58
2022-08-07T04:00:01.691Z,1005.61
2022-08-07T04:00:56.995Z,1005.64
2022-08-07T04:01:53.689Z,1005.64
2022-08-07T04:02:52.682Z,1005.63
2022-08-07T04:03:55.101Z,1005.68
2022-08-07T04:04:52.642Z,1005.64
2022-08-07T04:05:52.635Z,1005.63
2022-08-07T04:06:54.047Z,1005.64
2022-08-07T04:07:52.633Z,1005.63
2022-08-07T04:08:52.603Z,1005.65
2022-08-07T04:09:52.594Z,1005.66
2022-08-07T04:10:54.649Z,1005.63
2022-08-07T04:12:23.525Z,1005.60
2022-08-07T04:12:53.576Z,1005.60
2022-08-07T04:14:10.248Z,1005.63
2022-08-07T04:14:53.537Z,1005.60
2022-08-07T04:15:52.528Z,1005.64
2022-08-07T04:16:58.210Z,1005.67
2022-08-07T04:18:56.445Z,1005.59
2022-08-07T04:18:59.609Z,1005.65
2022-08-07T04:19:54.546Z,1005.65
2022-08-07T04:20:54.823Z,1005.66
2022-08-07T04:21:59.089Z,1005.63
2022-08-07T04:23:01.383Z,1005.67
2022-08-07T04:24:03.507Z,1005.67
2022-08-07T04:24:53.430Z,1005.66
2022-08-07T04:25:52.419Z,1005.65
2022-08-07T04:26:52.412Z,1005.65
2022-08-07T04:27:59.125Z,1005.64
2022-08-07T04:28:53.387Z,1005.61
2022-08-07T04:30:01.446Z,1005.63
2022-08-07T04:30:56.671Z,1005.61
2022-08-07T04:32:03.394Z,1005.59
2022-08-07T04:32:58.147Z,1005.64
2022-08-07T04:33:55.156Z,1005.65
2022-08-07T04:34:52.332Z,1005.59
2022-08-07T04:35:54.253Z,1005.66
2022-08-07T04:36:52.323Z,1005.66
2022-08-07T04:38:03.418Z,1005.69
2022-08-07T04:38:53.286Z,1005.67
2022-08-07T04:39:52.312Z,1005.69
2022-08-07T04:40:56.671Z,1005.72
2022-08-07T04:41:52.255Z,1005.72
2022-08-07T04:42:52.417Z,1005.70
2022-08-07T04:44:12.293Z,1005.70
2022-08-07T04:45:02.561Z,1005.68
2022-08-07T04:46:01.329Z,1005.67
2022-08-07T04:47:03.845Z,1005.70
2022-08-07T04:48:01.724Z,1005.70
2022-08-07T04:48:53.176Z,1005.71
2022-08-07T04:49:57.864Z,1005.73
2022-08-07T04:50:53.157Z,1005.72
2022-08-07T04:51:52.148Z,1005.70
2022-08-07T04:52:52.844Z,1005.70
2022-08-07T04:54:05.225Z,1005.67
2022-08-07T04:54:53.109Z,1005.71
2022-08-07T04:58:07.272Z,1005.69
2022-08-07T04:58:14.296Z,1005.71
2022-08-07T04:58:16.494Z,1005.69
2022-08-07T04:59:18.388Z,1005.64
2022-08-07T05:00:11.763Z,1005.63
2022-08-07T05:00:53.107Z,1005.70
2022-08-07T05:01:52.041Z,1005.67
2022-08-07T05:02:52.051Z,1005.70
2022-08-07T05:04:07.296Z,1005.69
2022-08-07T05:04:53.014Z,1005.69
2022-08-07T05:05:57.138Z,1005.67
2022-08-07T05:06:53.433Z,1005.72
2022-08-07T05:07:52.026Z,1005.67
2022-08-07T05:09:01.313Z,1005.67
2022-08-07T05:09:52.955Z,1005.70
2022-08-07T05:10:58.411Z,1005.72
2022-08-07T05:11:57.276Z,1005.70
2022-08-07T05:12:55.253Z,1005.74
2022-08-07T05:14:55.794Z,1005.73
2022-08-07T05:15:03.527Z,1005.68
2022-08-07T05:15:53.582Z,1005.71
2022-08-07T05:16:52.798Z,1005.70
2022-08-07T05:17:54.985Z,1005.70
2022-08-07T05:18:51.859Z,1005.72
2022-08-07T05:19:51.847Z,1005.75
2022-08-07T05:20:51.841Z,1005.79
2022-08-07T05:22:00.738Z,1005.76
2022-08-07T05:22:52.962Z,1005.79
2022-08-07T05:23:51.805Z,1005.72
2022-08-07T05:24:51.788Z,1005.76
2022-08-07T05:26:15.600Z,1005.77
2022-08-07T05:26:52.770Z,1005.81
2022-08-07T05:28:02.996Z,1005.76
2022-08-07T05:28:52.750Z,1005.78
2022-08-07T05:29:53.659Z,1005.71
2022-08-07T05:30:52.304Z,1005.75
2022-08-07T05:31:52.937Z,1005.77
2022-08-07T05:32:51.730Z,1005.81
2022-08-07T05:34:04.526Z,1005.83
2022-08-07T05:34:52.681Z,1005.85
2022-08-07T05:35:51.727Z,1005.85
2022-08-07T05:36:52.799Z,1005.87
2022-08-07T05:38:08.954Z,1005.88
2022-08-07T05:39:00.370Z,1005.91
2022-08-07T05:40:06.303Z,1005.85
2022-08-07T05:40:52.676Z,1005.87
2022-08-07T05:42:01.159Z,1005.85
2022-08-07T05:42:55.694Z,1005.88
2022-08-07T05:44:11.942Z,1005.88
2022-08-07T05:45:04.466Z,1005.86
2022-08-07T05:45:52.565Z,1005.86
2022-08-07T05:46:51.556Z,1005.89
2022-08-07T05:48:01.994Z,1005.86
2022-08-07T05:48:58.438Z,1005.85
2022-08-07T05:49:52.517Z,1005.84
2022-08-07T05:50:51.519Z,1005.84
2022-08-07T05:51:51.503Z,1005.85
2022-08-07T05:52:51.498Z,1005.85
2022-08-07T05:54:12.226Z,1005.91
2022-08-07T05:54:55.425Z,1005.89
2022-08-07T05:56:02.866Z,1005.93
2022-08-07T05:56:52.450Z,1005.93
2022-08-07T05:57:51.440Z,1005.91
2022-08-07T05:58:52.705Z,1005.86
2022-08-07T05:59:57.506Z,1005.81
2022-08-07T06:00:52.413Z,1005.84
2022-08-07T06:01:51.444Z,1005.86
2022-08-07T06:02:51.391Z,1005.93
2022-08-07T06:03:56.292Z,1005.84
2022-08-07T06:04:52.372Z,1005.90
2022-08-07T06:05:56.363Z,1005.88
2022-08-07T06:06:56.712Z,1005.92
2022-08-07T06:08:14.726Z,1005.89
2022-08-07T06:08:52.353Z,1005.93
2022-08-07T06:10:05.277Z,1005.91
2022-08-07T06:10:54.851Z,1005.92
2022-08-07T06:11:51.297Z,1005.90
2022-08-07T06:12:51.284Z,1005.92
2022-08-07T06:14:13.337Z,1005.93
2022-08-07T06:14:52.255Z,1005.94
2022-08-07T06:15:51.254Z,1005.99
2022-08-07T06:16:56.019Z,1005.97
2022-08-07T06:17:54.911Z,1005.94
2022-08-07T06:18:51.740Z,1005.94
2022-08-07T06:20:03.729Z,1005.94
2022-08-07T06:22:11.725Z,1005.93
2022-08-07T06:22:16.972Z,1005.95
2022-08-07T06:23:02.362Z,1005.88
2022-08-07T06:24:46.283Z,1005.94
2022-08-07T06:24:57.878Z,1005.90
2022-08-07T06:25:54.440Z,1005.90
2022-08-07T06:26:51.139Z,1005.93
2022-08-07T06:28:01.038Z,1005.90
2022-08-07T06:28:52.723Z,1005.98
2022-08-07T06:29:51.101Z,1005.94
2022-08-07T06:30:52.995Z,1005.96
2022-08-07T06:31:51.081Z,1005.96
2022-08-07T06:32:51.071Z,1005.96
2022-08-07T06:33:51.283Z,1005.96
2022-08-07T06:34:51.052Z,1005.90
2022-08-07T06:36:06.837Z,1005.92
2022-08-07T06:36:52.517Z,1005.91
2022-08-07T06:37:52.966Z,1005.86
2022-08-07T06:38:59.230Z,1005.88
2022-08-07T06:40:16.391Z,1005.85
2022-08-07T06:40:52.016Z,1005.87
2022-08-07T06:42:02.284Z,1005.84
2022-08-07T06:42:51.965Z,1005.81
2022-08-07T06:44:01.843Z,1005.82
2022-08-07T06:44:51.943Z,1005.81
2022-08-07T06:45:50.939Z,1005.83
2022-08-07T06:46:53.801Z,1005.86
2022-08-07T06:47:58.765Z,1005.82
2022-08-07T06:48:51.919Z,1005.80
2022-08-07T06:49:58.215Z,1005.78
2022-08-07T06:50:51.881Z,1005.81
2022-08-07T06:51:50.869Z,1005.73
2022-08-07T06:52:52.875Z,1005.75
2022-08-07T06:55:28.452Z,1005.75
2022-08-07T06:55:32.877Z,1005.77
2022-08-07T06:55:59.995Z,1005.76
2022-08-07T06:56:51.811Z,1005.77
2022-08-07T06:57:54.917Z,1005.75
2022-08-07T07:00:11.379Z,1005.75
2022-08-07T07:00:12.466Z,1005.79
2022-08-07T07:00:52.906Z,1005.79
2022-08-07T07:01:51.261Z,1005.75
2022-08-07T07:02:57.684Z,1005.78
2022-08-07T07:03:58.901Z,1005.79
2022-08-07T07:04:55.026Z,1005.81
2022-08-07T07:06:02.740Z,1005.77
2022-08-07T07:07:00.264Z,1005.85
2022-08-07T07:07:59.125Z,1005.81
2022-08-07T07:08:51.723Z,1005.83
2022-08-07T07:09:50.792Z,1005.81
2022-08-07T07:10:56.505Z,1005.78
2022-08-07T07:12:08.357Z,1005.78
2022-08-07T07:12:53.450Z,1005.78
2022-08-07T07:13:58.340Z,1005.80
2022-08-07T07:14:51.617Z,1005.78
2022-08-07T07:15:51.767Z,1005.71
2022-08-07T07:16:53.369Z,1005.72
2022-08-07T07:17:52.344Z,1005.77
2022-08-07T07:18:50.598Z,1005.71
2022-08-07T07:19:57.240Z,1005.63
2022-08-07T07:20:51.559Z,1005.65
2022-08-07T07:22:05.491Z,1005.64
2022-08-07T07:24:09.176Z,1005.62
2022-08-07T07:24:09.725Z,1005.66
2022-08-07T07:24:56.696Z,1005.63
2022-08-07T07:26:33.188Z,1005.61
2022-08-07T07:26:52.329Z,1005.64
2022-08-07T07:28:01.893Z,1005.62
2022-08-07T07:29:40.434Z,1005.68
2022-08-07T07:30:07.397Z,1005.67
2022-08-07T07:30:51.454Z,1005.68
2022-08-07T07:31:50.443Z,1005.69
2022-08-07T07:32:50.436Z,1005.62
2022-08-07T07:33:56.390Z,1005.64
2022-08-07T07:34:51.405Z,1005.66
2022-08-07T07:36:04.866Z,1005.64
2022-08-07T07:36:53.967Z,1005.64
2022-08-07T07:38:02.703Z,1005.65
2022-08-07T07:38:51.386Z,1005.62
2022-08-07T07:39:54.604Z,1005.60
2022-08-07T07:40:51.347Z,1005.58
2022-08-07T07:42:08.769Z,1005.58
2022-08-07T07:42:54.045Z,1005.57
2022-08-07T07:44:16.750Z,1005.58
2022-08-07T07:44:51.299Z,1005.52
2022-08-07T07:46:37.704Z,1005.54
2022-08-07T07:46:54.684Z,1005.48
2022-08-07T07:47:52.236Z,1005.45
2022-08-07T07:48:50.282Z,1005.51
2022-08-07T07:50:36.312Z,1005.49
2022-08-07T07:50:51.240Z,1005.46
2022-08-07T07:51:58.392Z,1005.51
2022-08-07T07:52:51.212Z,1005.43
2022-08-07T07:53:52.546Z,1005.42
2022-08-07T07:54:51.094Z,1005.38
2022-08-07T07:55:54.671Z,1005.45
2022-08-07T07:56:51.174Z,1005.44
2022-08-07T07:57:52.303Z,1005.38
2022-08-07T07:58:50.632Z,1005.40
2022-08-07T07:59:52.197Z,1005.38
2022-08-07T08:00:54.096Z,1005.38
2022-08-07T08:02:01.929Z,1005.40
2022-08-07T08:03:05.341Z,1005.43
2022-08-07T08:04:10.162Z,1005.44
2022-08-07T08:04:51.124Z,1005.43
2022-08-07T08:05:54.230Z,1005.42
2022-08-07T08:06:53.192Z,1005.40
2022-08-07T08:07:59.804Z,1005.37
2022-08-07T08:08:51.068Z,1005.41
2022-08-07T08:09:52.419Z,1005.36
2022-08-07T08:10:51.029Z,1005.38
2022-08-07T08:12:02.864Z,1005.42
2022-08-07T08:12:52.514Z,1005.39
2022-08-07T08:13:54.704Z,1005.38
2022-08-07T08:14:49.981Z,1005.35
2022-08-07T08:16:50.981Z,1005.36
2022-08-07T08:17:57.461Z,1005.35
2022-08-07T08:18:36.359Z,1005.32
2022-08-07T08:18:50.962Z,1005.34
2022-08-07T08:20:19.349Z,1005.36
2022-08-07T08:20:50.925Z,1005.33
2022-08-07T08:21:55.731Z,1005.27
2022-08-07T08:22:55.665Z,1005.27
2022-08-07T08:23:50.921Z,1005.24
2022-08-07T08:24:57.085Z,1005.26
2022-08-07T08:25:50.875Z,1005.33
2022-08-07T08:26:50.423Z,1005.27
2022-08-07T08:27:56.744Z,1005.33
2022-08-07T08:28:50.859Z,1005.34
2022-08-07T08:29:55.526Z,1005.34
2022-08-07T08:30:51.331Z,1005.32
2022-08-07T08:32:17.166Z,1005.33
2022-08-07T08:32:50.796Z,1005.32
2022-08-07T08:33:55.409Z,1005.32
2022-08-07T08:34:50.779Z,1005.30
2022-08-07T08:35:51.043Z,1005.28
2022-08-07T08:36:57.752Z,1005.27
2022-08-07T08:38:00.738Z,1005.24
2022-08-07T08:38:50.756Z,1005.23
2022-08-07T08:39:55.057Z,1005.23
2022-08-07T08:40:50.725Z,1005.24
2022-08-07T08:41:57.203Z,1005.29
2022-08-07T08:42:51.605Z,1005.27
2022-08-07T08:43:56.211Z,1005.23
2022-08-07T08:44:50.674Z,1005.22
2022-08-07T08:45:59.489Z,1005.16
2022-08-07T08:46:50.644Z,1005.17
2022-08-07T08:47:54.604Z,1005.18
2022-08-07T08:48:50.975Z,1005.21
2022-08-07T08:50:04.908Z,1005.20
2022-08-07T08:50:51.637Z,1005.18
2022-08-07T08:52:12.778Z,1005.17
2022-08-07T08:52:54.124Z,1005.19
2022-08-07T08:53:49.598Z,1005.16
2022-08-07T08:54:49.569Z,1005.16
2022-08-07T08:55:53.189Z,1005.12
2022-08-07T08:56:50.548Z,1005.09
2022-08-07T08:57:49.537Z,1005.17
2022-08-07T08:58:50.690Z,1005.11
2022-08-07T08:59:50.520Z,1005.09
2022-08-07T09:00:51.693Z,1005.14
2022-08-07T09:01:49.834Z,1005.11
2022-08-07T09:02:52.310Z,1005.06
2022-08-07T09:03:52.589Z,1005.12
2022-08-07T09:04:49.463Z,1005.06
2022-08-07T09:05:49.456Z,1005.05
2022-08-07T09:06:49.443Z,1005.04
2022-08-07T09:07:57.610Z,1005.01
2022-08-07T09:08:50.444Z,1004.95
2022-08-07T09:09:56.629Z,1004.95
2022-08-07T09:10:50.406Z,1004.96
2022-08-07T09:11:54.574Z,1004.93
2022-08-07T09:12:53.017Z,1004.96
2022-08-07T09:13:49.411Z,1004.88
2022-08-07T09:14:50.645Z,1004.94
2022-08-07T09:16:24.320Z,1004.98
2022-08-07T09:16:50.353Z,1004.93
2022-08-07T09:18:01.359Z,1004.93
2022-08-07T09:18:58.187Z,1004.92
2022-08-07T09:19:53.387Z,1004.89
2022-08-07T09:20:58.572Z,1004.86
2022-08-07T09:22:10.019Z,1004.82
2022-08-07T09:24:29.431Z,1004.84
2022-08-07T09:24:31.602Z,1004.85
2022-08-07T09:24:58.879Z,1004.82
2022-08-07T09:25:54.205Z,1004.78
2022-08-07T09:26:50.898Z,1004.81
2022-08-07T09:27:59.425Z,1004.78
2022-08-07T09:30:01.329Z,1004.76
2022-08-07T09:30:04.372Z,1004.70
2022-08-07T09:30:54.524Z,1004.71
2022-08-07T09:31:49.561Z,1004.66
2022-08-07T09:32:49.185Z,1004.68
2022-08-07T09:33:56.730Z,1004.65
2022-08-07T09:34:53.870Z,1004.63
2022-08-07T09:36:02.675Z,1004.62
2022-08-07T09:36:50.141Z,1004.62
2022-08-07T09:37:53.583Z,1004.63
2022-08-07T09:38:53.822Z,1004.51
2022-08-07T09:39:54.219Z,1004.54
2022-08-07T09:40:50.230Z,1004.54
2022-08-07T09:41:59.040Z,1004.53
2022-08-07T09:42:50.389Z,1004.51
2022-08-07T09:44:05.952Z,1004.47
2022-08-07T09:47:24.341Z,1004.41
2022-08-07T09:47:26.147Z,1004.46
2022-08-07T09:47:56.174Z,1004.41
2022-08-07T09:48:01.233Z,1004.41
2022-08-07T09:50:00.574Z,1004.39
2022-08-07T09:50:01.738Z,1004.40
2022-08-07T09:50:51.475Z,1004.37
2022-08-07T09:52:15.654Z,1004.30
2022-08-07T09:52:51.859Z,1004.32
2022-08-07T09:53:56.083Z,1004.34
2022-08-07T09:54:49.979Z,1004.26
2022-08-07T09:56:04.200Z,1004.35
2022-08-07T09:56:49.948Z,1004.32
2022-08-07T09:57:48.971Z,1004.36
2022-08-07T09:58:50.992Z,1004.35
2022-08-07T10:00:00.627Z,1004.35
2022-08-07T10:00:50.574Z,1004.36
2022-08-07T10:01:52.419Z,1004.34
2022-08-07T10:02:55.309Z,1004.32
2022-08-07T10:04:05.292Z,1004.33
2022-08-07T10:04:53.341Z,1004.24
2022-08-07T10:06:00.656Z,1004.27
2022-08-07T10:06:54.020Z,1004.24
2022-08-07T10:07:53.733Z,1004.20
2022-08-07T10:08:51.436Z,1004.19
2022-08-07T10:10:00.341Z,1004.17
2022-08-07T10:12:01.635Z,1004.09
2022-08-07T10:12:53.122Z,1004.09
2022-08-07T10:14:00.199Z,1004.05
2022-08-07T10:14:55.007Z,1004.02
2022-08-07T10:15:49.793Z,1004.03
2022-08-07T10:16:48.767Z,1003.99
2022-08-07T10:18:03.108Z,1003.98
2022-08-07T10:18:49.749Z,1003.95
2022-08-07T10:19:48.768Z,1003.99
2022-08-07T10:20:50.365Z,1003.95
2022-08-07T10:22:12.609Z,1004.00
2022-08-07T10:22:51.152Z,1003.94
2022-08-07T10:24:05.724Z,1003.92
2022-08-07T10:24:49.720Z,1003.94
2022-08-07T10:25:52.932Z,1003.89
2022-08-07T10:26:53.036Z,1003.91
2022-08-07T10:27:51.436Z,1003.90
2022-08-07T10:28:49.570Z,1003.83
2022-08-07T10:29:51.906Z,1003.85
2022-08-07T10:30:48.643Z,1003.88
2022-08-07T10:31:49.046Z,1003.84
2022-08-07T10:32:53.091Z,1003.79
2022-08-07T10:34:06.653Z,1003.80
2022-08-07T10:34:49.627Z,1003.76
2022-08-07T10:35:56.398Z,1003.74
2022-08-07T10:36:49.594Z,1003.74
2022-08-07T10:38:09.839Z,1003.73
2022-08-07T10:38:50.023Z,1003.72
2022-08-07T10:40:02.963Z,1003.77
2022-08-07T10:40:49.549Z,1003.79
2022-08-07T10:41:54.515Z,1003.79
2022-08-07T10:42:50.045Z,1003.70
2022-08-07T10:43:48.523Z,1003.70
2022-08-07T10:44:50.194Z,1003.73
2022-08-07T10:45:57.368Z,1003.68
2022-08-07T10:46:49.493Z,1003.73
2022-08-07T10:47:53.887Z,1003.71
2022-08-07T10:48:49.473Z,1003.69
2022-08-07T10:49:51.282Z,1003.72
2022-08-07T10:50:49.847Z,1003.69
2022-08-07T10:52:01.994Z,1003.68
2022-08-07T10:52:51.604Z,1003.70
2022-08-07T10:53:48.426Z,1003.71
2022-08-07T10:54:53.090Z,1003.72
2022-08-07T10:55:49.398Z,1003.72
2022-08-07T10:56:48.397Z,1003.68
2022-08-07T10:57:56.093Z,1003.73
2022-08-07T10:58:56.694Z,1003.72
2022-08-07T10:59:49.389Z,1003.65
2022-08-07T11:00:50.366Z,1003.64
2022-08-07T11:01:51.551Z,1003.70
2022-08-07T11:02:53.893Z,1003.66
2022-08-07T11:03:52.675Z,1003.66
2022-08-07T11:04:49.341Z,1003.66
2022-08-07T11:05:50.795Z,1003.68
2022-08-07T11:06:48.303Z,1003.71
2022-08-07T11:07:58.630Z,1003.68
2022-08-07T11:08:49.285Z,1003.66
2022-08-07T11:10:09.020Z,1003.70
2022-08-07T11:10:57.940Z,1003.71
2022-08-07T11:11:51.764Z,1003.70
2022-08-07T11:12:49.056Z,1003.66
2022-08-07T11:14:46.243Z,1003.63
2022-08-07T11:14:59.793Z,1003.67
2022-08-07T11:15:54.420Z,1003.66
2022-08-07T11:16:52.735Z,1003.66
2022-08-07T11:17:49.634Z,1003.61
2022-08-07T11:18:51.010Z,1003.68
2022-08-07T11:19:48.211Z,1003.65
2022-08-07T11:20:48.169Z,1003.59
2022-08-07T11:21:48.158Z,1003.53
2022-08-07T11:22:48.150Z,1003.63
2022-08-07T11:23:48.552Z,1003.59
2022-08-07T11:24:48.153Z,1003.61
2022-08-07T11:25:50.351Z,1003.53
2022-08-07T11:26:50.422Z,1003.60
2022-08-07T11:28:01.820Z,1003.59
2022-08-07T11:28:53.459Z,1003.52
2022-08-07T11:29:53.900Z,1003.56
2022-08-07T11:30:49.073Z,1003.49
2022-08-07T11:31:48.069Z,1003.50
2022-08-07T11:32:48.055Z,1003.50
2022-08-07T11:33:53.977Z,1003.46
2022-08-07T11:34:49.056Z,1003.47
2022-08-07T11:36:00.394Z,1003.47
2022-08-07T11:36:49.551Z,1003.44
2022-08-07T11:37:58.338Z,1003.48
2022-08-07T11:38:50.585Z,1003.47
2022-08-07T11:40:00.221Z,1003.46
2022-08-07T11:40:49.772Z,1003.39
2022-08-07T11:42:01.920Z,1003.42
2022-08-07T11:42:48.960Z,1003.41
2022-08-07T11:44:11.704Z,1003.43
2022-08-07T11:44:52.508Z,1003.36
2022-08-07T11:45:50.228Z,1003.34
2022-08-07T11:46:48.644Z,1003.32
2022-08-07T11:47:58.865Z,1003.35
2022-08-07T11:49:17.492Z,1003.40
2022-08-07T11:50:11.542Z,1003.41
2022-08-07T11:50:57.291Z,1003.32
2022-08-07T11:51:48.873Z,1003.39
2022-08-07T11:52:47.874Z,1003.39
2022-08-07T11:54:01.764Z,1003.36
2022-08-07T11:54:54.877Z,1003.34
2022-08-07T11:56:25.210Z,1003.39
2022-08-07T11:56:53.250Z,1003.38
2022-08-07T11:58:00.640Z,1003.31
2022-08-07T11:58:49.718Z,1003.30
2022-08-07T12:00:10.535Z,1003.27
2022-08-07T12:01:01.683Z,1003.32
2022-08-07T12:01:59.299Z,1003.29
2022-08-07T12:02:52.010Z,1003.23
2022-08-07T12:03:47.818Z,1003.31
2022-08-07T12:04:47.785Z,1003.24
2022-08-07T12:05:49.554Z,1003.25
2022-08-07T12:06:57.259Z,1003.26